sim
Sign-in with your pilot id or email,
or register
Callsign
Passwort

Schedule Details

Flight Number: RYR8182 (3)
Departure: London Stansted Airport (EGSS) at 06:10
Arrival: Fuerteventura Airport (GCFV) at 10:20
Route: Ryanair Passenger Schedule. Enter filed route here before submitting Pirep.

Weather Information
Getting current METAR information for EGSS 212150Z AUTO 10006KT 9999 NCD 11/01 Q1015
Getting current METAR information for GCFV 212130Z 34010KT 300V360 9999 SCT029 19/13 Q1015

Schedule Frequency

Route Map